sensor_id;sensor_type;location;lat;lon;timestamp;temperature;humidity
57030;DHT22;42920;45.306;20.448;2023-03-12T00:02:04;128.40;2252.80
57030;DHT22;42920;45.306;20.448;2023-03-12T00:04:30;128.40;2252.80
57030;DHT22;42920;45.306;20.448;2023-03-12T00:06:56;128.40;2252.80
57030;DHT22;42920;45.306;20.448;2023-03-12T00:09:21;128.40;2252.80
57030;DHT22;42920;45.306;20.448;2023-03-12T00:11:47;128.40;2252.80
57030;DHT22;42920;45.306;20.448;2023-03-12T00:14:13;128.50;2252.80
57030;DHT22;42920;45.306;20.448;2023-03-12T00:16:39;128.40;2252.80
57030;DHT22;42920;45.306;20.448;2023-03-12T00:19:04;128.40;2252.80
57030;DHT22;42920;45.306;20.448;2023-03-12T00:21:30;128.40;2252.80
57030;DHT22;42920;45.306;20.448;2023-03-12T00:23:55;128.40;2252.80
57030;DHT22;42920;45.306;20.448;2023-03-12T00:26:21;128.40;2252.80
57030;DHT22;42920;45.306;20.448;2023-03-12T00:28:47;128.40;2252.80
57030;DHT22;42920;45.306;20.448;2023-03-12T00:31:14;128.40;2252.80
57030;DHT22;42920;45.306;20.448;2023-03-12T00:33:40;128.40;2252.80
57030;DHT22;42920;45.306;20.448;2023-03-12T00:36:06;128.40;2252.80
57030;DHT22;42920;45.306;20.448;2023-03-12T00:38:32;128.50;2252.80
57030;DHT22;42920;45.306;20.448;2023-03-12T00:40:57;128.40;2252.80
57030;DHT22;42920;45.306;20.448;2023-03-12T00:43:23;128.40;2252.80
57030;DHT22;42920;45.306;20.448;2023-03-12T00:45:48;128.20;2252.80
57030;DHT22;42920;45.306;20.448;2023-03-12T00:48:14;128.30;2252.80
57030;DHT22;42920;45.306;20.448;2023-03-12T00:50:39;128.40;2252.80
57030;DHT22;42920;45.306;20.448;2023-03-12T00:53:05;128.40;2252.80
57030;DHT22;42920;45.306;20.448;2023-03-12T00:55:30;128.30;2252.80
57030;DHT22;42920;45.306;20.448;2023-03-12T00:57:56;128.10;2252.80
57030;DHT22;42920;45.306;20.448;2023-03-12T01:00:22;128.20;2252.80
57030;DHT22;42920;45.306;20.448;2023-03-12T01:02:47;128.30;2252.80
57030;DHT22;42920;45.306;20.448;2023-03-12T01:05:13;128.20;2252.80
57030;DHT22;42920;45.306;20.448;2023-03-12T01:07:39;128.30;2252.80
57030;DHT22;42920;45.306;20.448;2023-03-12T01:10:05;128.30;2252.80
57030;DHT22;42920;45.306;20.448;2023-03-12T01:12:31;128.00;2252.80
57030;DHT22;42920;45.306;20.448;2023-03-12T01:14:56;128.10;2252.80
57030;DHT22;42920;45.306;20.448;2023-03-12T01:17:22;128.10;2252.80
57030;DHT22;42920;45.306;20.448;2023-03-12T01:19:48;128.20;2252.80
57030;DHT22;42920;45.306;20.448;2023-03-12T01:22:13;128.20;2252.80
57030;DHT22;42920;45.306;20.448;2023-03-12T01:24:39;128.10;2252.80
57030;DHT22;42920;45.306;20.448;2023-03-12T01:27:04;128.10;2252.80
57030;DHT22;42920;45.306;20.448;2023-03-12T01:29:30;128.10;2252.80
57030;DHT22;42920;45.306;20.448;2023-03-12T01:31:55;128.00;2252.80
57030;DHT22;42920;45.306;20.448;2023-03-12T01:34:21;103.30;2227.20
57030;DHT22;42920;45.306;20.448;2023-03-12T01:36:46;103.30;2227.20
57030;DHT22;42920;45.306;20.448;2023-03-12T01:39:12;128.00;2252.80
57030;DHT22;42920;45.306;20.448;2023-03-12T01:41:38;128.00;2252.80
57030;DHT22;42920;45.306;20.448;2023-03-12T01:44:04;103.30;2227.20
57030;DHT22;42920;45.306;20.448;2023-03-12T01:46:31;128.00;2252.80
57030;DHT22;42920;45.306;20.448;2023-03-12T01:51:42;128.00;2252.80
57030;DHT22;42920;45.306;20.448;2023-03-12T01:54:14;103.30;2227.20
57030;DHT22;42920;45.306;20.448;2023-03-12T01:56:40;103.30;2227.20
57030;DHT22;42920;45.306;20.448;2023-03-12T01:59:09;128.00;2252.80
57030;DHT22;42920;45.306;20.448;2023-03-12T02:01:37;103.20;2227.20
57030;DHT22;42920;45.306;20.448;2023-03-12T02:04:03;103.10;2227.20
57030;DHT22;42920;45.306;20.448;2023-03-12T02:06:33;103.30;2227.20
57030;DHT22;42920;45.306;20.448;2023-03-12T02:09:00;103.10;2227.20
57030;DHT22;42920;45.306;20.448;2023-03-12T02:11:27;103.20;2227.20
57030;DHT22;42920;45.306;20.448;2023-03-12T02:13:52;103.10;2227.20
57030;DHT22;42920;45.306;20.448;2023-03-12T02:16:18;103.00;2227.20
57030;DHT22;42920;45.306;20.448;2023-03-12T02:18:44;102.90;2227.20
57030;DHT22;42920;45.306;20.448;2023-03-12T02:21:18;102.90;2227.20
57030;DHT22;42920;45.306;20.448;2023-03-12T02:26:12;103.00;2227.20
57030;DHT22;42920;45.306;20.448;2023-03-12T02:28:39;103.00;2227.20
57030;DHT22;42920;45.306;20.448;2023-03-12T02:31:09;103.00;2227.20
57030;DHT22;42920;45.306;20.448;2023-03-12T02:33:36;103.00;2227.20
57030;DHT22;42920;45.306;20.448;2023-03-12T02:36:02;103.00;2227.20
57030;DHT22;42920;45.306;20.448;2023-03-12T02:40:57;103.00;2227.20
57030;DHT22;42920;45.306;20.448;2023-03-12T02:43:22;103.10;2227.20
57030;DHT22;42920;45.306;20.448;2023-03-12T02:45:48;103.10;2227.20
57030;DHT22;42920;45.306;20.448;2023-03-12T02:48:14;103.00;2227.20
57030;DHT22;42920;45.306;20.448;2023-03-12T02:50:39;103.10;2227.20
57030;DHT22;42920;45.306;20.448;2023-03-12T02:53:05;103.10;2227.20
57030;DHT22;42920;45.306;20.448;2023-03-12T02:55:30;102.90;2227.20
57030;DHT22;42920;45.306;20.448;2023-03-12T02:57:56;103.00;2227.20
57030;DHT22;42920;45.306;20.448;2023-03-12T03:00:21;103.00;2227.20
57030;DHT22;42920;45.306;20.448;2023-03-12T03:02:47;102.90;2227.20
57030;DHT22;42920;45.306;20.448;2023-03-12T03:05:13;102.80;2227.20
57030;DHT22;42920;45.306;20.448;2023-03-12T03:07:38;102.80;2227.20
57030;DHT22;42920;45.306;20.448;2023-03-12T03:10:04;102.90;2227.20
57030;DHT22;42920;45.306;20.448;2023-03-12T03:12:30;102.90;2227.20
57030;DHT22;42920;45.306;20.448;2023-03-12T03:14:56;102.90;2227.20
57030;DHT22;42920;45.306;20.448;2023-03-12T03:17:22;102.80;2227.20
57030;DHT22;42920;45.306;20.448;2023-03-12T03:19:49;102.90;2227.20
57030;DHT22;42920;45.306;20.448;2023-03-12T03:22:15;102.80;2227.20
57030;DHT22;42920;45.306;20.448;2023-03-12T03:24:40;102.70;2227.20
57030;DHT22;42920;45.306;20.448;2023-03-12T03:27:06;102.80;2227.20
57030;DHT22;42920;45.306;20.448;2023-03-12T03:29:32;102.80;2227.20
57030;DHT22;42920;45.306;20.448;2023-03-12T03:31:57;102.80;2227.20
57030;DHT22;42920;45.306;20.448;2023-03-12T03:34:23;102.80;2227.20
57030;DHT22;42920;45.306;20.448;2023-03-12T03:36:48;102.80;2227.20
57030;DHT22;42920;45.306;20.448;2023-03-12T03:39:14;102.80;2227.20
57030;DHT22;42920;45.306;20.448;2023-03-12T03:41:39;102.80;2227.20
57030;DHT22;42920;45.306;20.448;2023-03-12T03:44:05;102.90;2227.20
57030;DHT22;42920;45.306;20.448;2023-03-12T03:46:32;102.70;2227.20
57030;DHT22;42920;45.306;20.448;2023-03-12T03:48:59;102.70;2227.20
57030;DHT22;42920;45.306;20.448;2023-03-12T03:51:25;102.60;2227.20
57030;DHT22;42920;45.306;20.448;2023-03-12T03:53:51;102.70;2227.20
57030;DHT22;42920;45.306;20.448;2023-03-12T03:56:16;102.70;2227.20
57030;DHT22;42920;45.306;20.448;2023-03-12T03:58:42;102.80;2227.20
57030;DHT22;42920;45.306;20.448;2023-03-12T04:01:08;102.70;2227.20
57030;DHT22;42920;45.306;20.448;2023-03-12T04:03:34;102.60;2227.20
57030;DHT22;42920;45.306;20.448;2023-03-12T04:06:00;102.60;2227.20
57030;DHT22;42920;45.306;20.448;2023-03-12T04:08:26;102.60;2227.20
57030;DHT22;42920;45.306;20.448;2023-03-12T04:10:53;102.60;2227.20
57030;DHT22;42920;45.306;20.448;2023-03-12T04:13:18;102.60;2227.20
57030;DHT22;42920;45.306;20.448;2023-03-12T04:15:51;102.50;2227.20
57030;DHT22;42920;45.306;20.448;2023-03-12T04:18:17;102.60;2227.20
57030;DHT22;42920;45.306;20.448;2023-03-12T04:20:43;102.60;2227.20
57030;DHT22;42920;45.306;20.448;2023-03-12T04:23:09;102.60;2227.20
57030;DHT22;42920;45.306;20.448;2023-03-12T04:25:34;102.50;2227.20
57030;DHT22;42920;45.306;20.448;2023-03-12T04:28:00;102.50;2227.20
57030;DHT22;42920;45.306;20.448;2023-03-12T04:30:26;102.50;2227.20
57030;DHT22;42920;45.306;20.448;2023-03-12T04:32:52;102.50;2227.20
57030;DHT22;42920;45.306;20.448;2023-03-12T04:35:18;102.60;2227.20
57030;DHT22;42920;45.306;20.448;2023-03-12T04:37:44;102.60;2227.20
57030;DHT22;42920;45.306;20.448;2023-03-12T04:40:09;102.60;2227.20
57030;DHT22;42920;45.306;20.448;2023-03-12T04:42:35;102.60;2227.20
57030;DHT22;42920;45.306;20.448;2023-03-12T04:45:02;102.60;2227.20
57030;DHT22;42920;45.306;20.448;2023-03-12T04:47:29;102.50;2227.20
57030;DHT22;42920;45.306;20.448;2023-03-12T04:49:55;102.50;2227.20
57030;DHT22;42920;45.306;20.448;2023-03-12T04:52:20;102.40;2227.20
57030;DHT22;42920;45.306;20.448;2023-03-12T04:54:46;102.50;2227.20
57030;DHT22;42920;45.306;20.448;2023-03-12T04:57:11;102.50;2227.20
57030;DHT22;42920;45.306;20.448;2023-03-12T04:59:37;102.50;2227.20
57030;DHT22;42920;45.306;20.448;2023-03-12T05:02:02;102.40;2227.20
57030;DHT22;42920;45.306;20.448;2023-03-12T05:04:28;102.50;2227.20
57030;DHT22;42920;45.306;20.448;2023-03-12T05:06:53;102.50;2227.20
57030;DHT22;42920;45.306;20.448;2023-03-12T05:09:19;102.50;2227.20
57030;DHT22;42920;45.306;20.448;2023-03-12T05:11:44;102.40;2227.20
57030;DHT22;42920;45.306;20.448;2023-03-12T05:14:10;77.70;2227.20
57030;DHT22;42920;45.306;20.448;2023-03-12T05:16:36;77.60;2227.20
57030;DHT22;42920;45.306;20.448;2023-03-12T05:19:02;77.60;2227.20
57030;DHT22;42920;45.306;20.448;2023-03-12T05:21:28;102.50;2227.20
57030;DHT22;42920;45.306;20.448;2023-03-12T05:23:54;102.50;2227.20
57030;DHT22;42920;45.306;20.448;2023-03-12T05:26:20;77.70;2227.20
57030;DHT22;42920;45.306;20.448;2023-03-12T05:28:46;77.70;2227.20
57030;DHT22;42920;45.306;20.448;2023-03-12T05:31:12;77.70;2227.20
57030;DHT22;42920;45.306;20.448;2023-03-12T05:33:38;77.70;2227.20
57030;DHT22;42920;45.306;20.448;2023-03-12T05:36:04;77.60;2227.20
57030;DHT22;42920;45.306;20.448;2023-03-12T05:38:31;102.70;2227.20
57030;DHT22;42920;45.306;20.448;2023-03-12T05:40:56;77.70;2227.20
57030;DHT22;42920;45.306;20.448;2023-03-12T05:43:23;77.70;2227.20
57030;DHT22;42920;45.306;20.448;2023-03-12T05:45:49;102.50;2227.20
57030;DHT22;42920;45.306;20.448;2023-03-12T05:48:14;102.40;2227.20
57030;DHT22;42920;45.306;20.448;2023-03-12T05:50:40;102.50;2227.20
57030;DHT22;42920;45.306;20.448;2023-03-12T05:53:06;102.40;2227.20
57030;DHT22;42920;45.306;20.448;2023-03-12T05:55:35;102.50;2227.20
57030;DHT22;42920;45.306;20.448;2023-03-12T05:58:01;102.40;2227.20
57030;DHT22;42920;45.306;20.448;2023-03-12T06:00:26;102.40;2227.20
57030;DHT22;42920;45.306;20.448;2023-03-12T06:02:52;102.50;2227.20
57030;DHT22;42920;45.306;20.448;2023-03-12T06:05:18;102.50;2227.20
57030;DHT22;42920;45.306;20.448;2023-03-12T06:07:43;102.60;2227.20
57030;DHT22;42920;45.306;20.448;2023-03-12T06:10:09;102.60;2227.20
57030;DHT22;42920;45.306;20.448;2023-03-12T06:12:35;102.60;2227.20
57030;DHT22;42920;45.306;20.448;2023-03-12T06:15:00;102.60;2227.20
57030;DHT22;42920;45.306;20.448;2023-03-12T06:17:27;102.60;2227.20
57030;DHT22;42920;45.306;20.448;2023-03-12T06:19:53;102.60;2227.20
57030;DHT22;42920;45.306;20.448;2023-03-12T06:22:18;102.70;2227.20
57030;DHT22;42920;45.306;20.448;2023-03-12T06:24:44;102.60;2227.20
57030;DHT22;42920;45.306;20.448;2023-03-12T06:27:12;102.80;2227.20
57030;DHT22;42920;45.306;20.448;2023-03-12T06:29:37;103.10;2227.20
57030;DHT22;42920;45.306;20.448;2023-03-12T06:32:03;102.60;2227.20
57030;DHT22;42920;45.306;20.448;2023-03-12T06:34:28;102.60;2227.20
57030;DHT22;42920;45.306;20.448;2023-03-12T06:36:54;102.80;2227.20
57030;DHT22;42920;45.306;20.448;2023-03-12T06:39:19;102.80;2227.20
57030;DHT22;42920;45.306;20.448;2023-03-12T06:41:45;102.80;2227.20
57030;DHT22;42920;45.306;20.448;2023-03-12T06:44:11;103.00;2227.20
57030;DHT22;42920;45.306;20.448;2023-03-12T06:46:36;103.10;2227.20
57030;DHT22;42920;45.306;20.448;2023-03-12T06:49:02;103.30;2227.20
57030;DHT22;42920;45.306;20.448;2023-03-12T06:51:27;128.00;2252.80
57030;DHT22;42920;45.306;20.448;2023-03-12T06:53:53;128.10;2252.80
57030;DHT22;42920;45.306;20.448;2023-03-12T06:56:19;103.20;2227.20
57030;DHT22;42920;45.306;20.448;2023-03-12T06:58:44;103.20;2227.20
57030;DHT22;42920;45.306;20.448;2023-03-12T07:01:10;128.10;2252.80
57030;DHT22;42920;45.306;20.448;2023-03-12T07:03:36;128.20;2252.80
57030;DHT22;42920;45.306;20.448;2023-03-12T07:06:01;128.20;2252.80
57030;DHT22;42920;45.306;20.448;2023-03-12T07:08:27;128.20;2252.80
57030;DHT22;42920;45.306;20.448;2023-03-12T07:10:56;128.40;2252.80
57030;DHT22;42920;45.306;20.448;2023-03-12T07:13:22;128.70;2252.80
57030;DHT22;42920;45.306;20.448;2023-03-12T07:15:47;128.70;2252.80
57030;DHT22;42920;45.306;20.448;2023-03-12T07:18:13;128.90;2252.80
57030;DHT22;42920;45.306;20.448;2023-03-12T07:20:39;153.70;2252.80
57030;DHT22;42920;45.306;20.448;2023-03-12T07:23:05;153.90;2252.80
57030;DHT22;42920;45.306;20.448;2023-03-12T07:25:33;153.90;2227.20
57030;DHT22;42920;45.306;20.448;2023-03-12T07:27:59;154.00;2201.60
57030;DHT22;42920;45.306;20.448;2023-03-12T07:30:25;154.10;2252.80
57030;DHT22;42920;45.306;20.448;2023-03-12T07:32:50;154.00;2201.60
57030;DHT22;42920;45.306;20.448;2023-03-12T07:35:16;154.00;2150.40
57030;DHT22;42920;45.306;20.448;2023-03-12T07:37:41;154.00;2201.60
57030;DHT22;42920;45.306;20.448;2023-03-12T07:40:07;153.90;2176.00
57030;DHT22;42920;45.306;20.448;2023-03-12T07:42:34;153.80;2201.60
57030;DHT22;42920;45.306;20.448;2023-03-12T07:45:00;153.60;2176.00
57030;DHT22;42920;45.306;20.448;2023-03-12T07:47:25;128.80;2201.60
57030;DHT22;42920;45.306;20.448;2023-03-12T07:49:51;128.90;2201.60
57030;DHT22;42920;45.306;20.448;2023-03-12T07:52:18;128.80;2176.00
57030;DHT22;42920;45.306;20.448;2023-03-12T07:54:44;153.60;2201.60
57030;DHT22;42920;45.306;20.448;2023-03-12T07:57:09;153.80;2201.60
57030;DHT22;42920;45.306;20.448;2023-03-12T07:59:35;153.90;2176.00
57030;DHT22;42920;45.306;20.448;2023-03-12T08:02:00;153.90;2176.00
57030;DHT22;42920;45.306;20.448;2023-03-12T08:04:26;154.10;2176.00
57030;DHT22;42920;45.306;20.448;2023-03-12T08:06:52;154.30;2150.40
57030;DHT22;42920;45.306;20.448;2023-03-12T08:09:17;154.30;2124.80
57030;DHT22;42920;45.306;20.448;2023-03-12T08:11:43;154.30;2099.20
57030;DHT22;42920;45.306;20.448;2023-03-12T08:14:08;154.40;2048.00
57030;DHT22;42920;45.306;20.448;2023-03-12T08:16:34;154.30;2073.60
57030;DHT22;42920;45.306;20.448;2023-03-12T08:18:59;154.40;2073.60
57030;DHT22;42920;45.306;20.448;2023-03-12T08:21:25;154.50;2099.20
57030;DHT22;42920;45.306;20.448;2023-03-12T08:23:50;154.40;2073.60
57030;DHT22;42920;45.306;20.448;2023-03-12T08:26:16;154.50;2048.00
57030;DHT22;42920;45.306;20.448;2023-03-12T08:28:41;154.50;2022.40
57030;DHT22;42920;45.306;20.448;2023-03-12T08:31:07;179.20;2048.00
57030;DHT22;42920;45.306;20.448;2023-03-12T08:33:34;154.50;2048.00
57030;DHT22;42920;45.306;20.448;2023-03-12T08:35:59;179.30;2073.60
57030;DHT22;42920;45.306;20.448;2023-03-12T08:38:25;179.40;2048.00
57030;DHT22;42920;45.306;20.448;2023-03-12T08:40:57;179.40;2022.40
57030;DHT22;42920;45.306;20.448;2023-03-12T08:43:23;179.50;2022.40
57030;DHT22;42920;45.306;20.448;2023-03-12T08:45:55;179.40;2022.40
57030;DHT22;42920;45.306;20.448;2023-03-12T08:48:20;179.40;2048.00
57030;DHT22;42920;45.306;20.448;2023-03-12T08:50:46;179.40;2022.40
57030;DHT22;42920;45.306;20.448;2023-03-12T08:53:12;179.50;1971.20
57030;DHT22;42920;45.306;20.448;2023-03-12T08:55:37;179.50;1996.80
57030;DHT22;42920;45.306;20.448;2023-03-12T08:58:03;179.50;1920.00
57030;DHT22;42920;45.306;20.448;2023-03-12T09:00:28;179.40;1971.20
57030;DHT22;42920;45.306;20.448;2023-03-12T09:02:54;179.60;1971.20
57030;DHT22;42920;45.306;20.448;2023-03-12T09:05:25;179.50;1945.60
57030;DHT22;42920;45.306;20.448;2023-03-12T09:07:54;179.60;1945.60
57030;DHT22;42920;45.306;20.448;2023-03-12T09:10:20;179.60;1945.60
57030;DHT22;42920;45.306;20.448;2023-03-12T09:12:45;179.70;1920.00
57030;DHT22;42920;45.306;20.448;2023-03-12T09:15:11;179.70;1971.20
57030;DHT22;42920;45.306;20.448;2023-03-12T09:17:37;179.90;1945.60
57030;DHT22;42920;45.306;20.448;2023-03-12T09:20:03;180.00;1868.80
57030;DHT22;42920;45.306;20.448;2023-03-12T09:22:32;204.80;1843.20
57030;DHT22;42920;45.306;20.448;2023-03-12T09:25:02;180.10;1843.20
57030;DHT22;42920;45.306;20.448;2023-03-12T09:27:27;204.90;1817.60
57030;DHT22;42920;45.306;20.448;2023-03-12T09:29:53;205.10;1817.60
57030;DHT22;42920;45.306;20.448;2023-03-12T09:32:19;205.20;1792.00
57030;DHT22;42920;45.306;20.448;2023-03-12T09:34:44;205.30;1792.00
57030;DHT22;42920;45.306;20.448;2023-03-12T09:37:10;205.20;1817.60
57030;DHT22;42920;45.306;20.448;2023-03-12T09:39:35;205.20;1817.60
57030;DHT22;42920;45.306;20.448;2023-03-12T09:42:02;205.20;1817.60
57030;DHT22;42920;45.306;20.448;2023-03-12T09:44:35;205.30;1817.60
57030;DHT22;42920;45.306;20.448;2023-03-12T09:47:25;205.40;1792.00
57030;DHT22;42920;45.306;20.448;2023-03-12T09:49:50;205.70;1740.80
57030;DHT22;42920;45.306;20.448;2023-03-12T09:52:20;230.60;1689.60
57030;DHT22;42920;45.306;20.448;2023-03-12T09:54:58;230.80;1740.80
57030;DHT22;42920;45.306;20.448;2023-03-12T09:57:28;230.60;1740.80
57030;DHT22;42920;45.306;20.448;2023-03-12T09:59:56;205.70;1664.00
57030;DHT22;42920;45.306;20.448;2023-03-12T10:02:33;205.40;1689.60
57030;DHT22;42920;45.306;20.448;2023-03-12T10:05:05;205.60;1715.20
57030;DHT22;42920;45.306;20.448;2023-03-12T10:07:33;230.60;1689.60
57030;DHT22;42920;45.306;20.448;2023-03-12T10:12:34;231.00;1587.20
57030;DHT22;42920;45.306;20.448;2023-03-12T10:17:38;230.60;1612.80
57030;DHT22;42920;45.306;20.448;2023-03-12T10:25:26;231.00;1638.40
57030;DHT22;42920;45.306;20.448;2023-03-12T10:27:54;231.30;1612.80
57030;DHT22;42920;45.306;20.448;2023-03-12T10:32:49;256.50;1510.40
57030;DHT22;42920;45.306;20.448;2023-03-12T10:35:17;256.40;1536.00
57030;DHT22;42920;45.306;20.448;2023-03-12T10:37:53;231.30;1561.60
57030;DHT22;42920;45.306;20.448;2023-03-12T10:40:22;231.20;1587.20
57030;DHT22;42920;45.306;20.448;2023-03-12T10:42:48;231.00;1587.20
57030;DHT22;42920;45.306;20.448;2023-03-12T10:45:22;230.80;1612.80
57030;DHT22;42920;45.306;20.448;2023-03-12T10:47:51;230.80;1612.80
57030;DHT22;42920;45.306;20.448;2023-03-12T10:50:28;230.70;1612.80
57030;DHT22;42920;45.306;20.448;2023-03-12T10:53:18;230.70;1612.80
57030;DHT22;42920;45.306;20.448;2023-03-12T10:55:56;230.90;1587.20
57030;DHT22;42920;45.306;20.448;2023-03-12T10:58:22;231.00;1587.20
57030;DHT22;42920;45.306;20.448;2023-03-12T11:00:53;230.90;1561.60
57030;DHT22;42920;45.306;20.448;2023-03-12T11:03:21;230.90;1587.20
57030;DHT22;42920;45.306;20.448;2023-03-12T11:05:47;230.90;1587.20
57030;DHT22;42920;45.306;20.448;2023-03-12T11:08:35;231.00;1612.80
57030;DHT22;42920;45.306;20.448;2023-03-12T11:10:59;256.00;1587.20
57030;DHT22;42920;45.306;20.448;2023-03-12T11:13:35;256.00;1561.60
57030;DHT22;42920;45.306;20.448;2023-03-12T11:16:22;231.30;1561.60
57030;DHT22;42920;45.306;20.448;2023-03-12T11:19:02;231.10;1612.80
57030;DHT22;42920;45.306;20.448;2023-03-12T11:21:28;231.00;1638.40
57030;DHT22;42920;45.306;20.448;2023-03-12T11:28:55;230.80;1587.20
57030;DHT22;42920;45.306;20.448;2023-03-12T11:31:30;230.90;1612.80
57030;DHT22;42920;45.306;20.448;2023-03-12T11:33:59;230.90;1612.80
57030;DHT22;42920;45.306;20.448;2023-03-12T11:46:43;231.00;1561.60
57030;DHT22;42920;45.306;20.448;2023-03-12T11:52:04;282.00;1484.80
57030;DHT22;42920;45.306;20.448;2023-03-12T11:56:58;307.60;1408.00
57030;DHT22;42920;45.306;20.448;2023-03-12T12:02:16;282.00;1408.00
57030;DHT22;42920;45.306;20.448;2023-03-12T12:07:23;281.70;1459.20
57030;DHT22;42920;45.306;20.448;2023-03-12T12:15:38;281.80;1484.80
57030;DHT22;42920;45.306;20.448;2023-03-12T12:18:01;282.40;1433.60
57030;DHT22;42920;45.306;20.448;2023-03-12T12:20:33;307.20;1433.60
57030;DHT22;42920;45.306;20.448;2023-03-12T12:23:08;307.70;1433.60
57030;DHT22;42920;45.306;20.448;2023-03-12T12:28:32;333.00;1356.80
57030;DHT22;42920;45.306;20.448;2023-03-12T12:33:31;333.20;1305.60
57030;DHT22;42920;45.306;20.448;2023-03-12T12:36:01;332.80;1331.20
57030;DHT22;42920;45.306;20.448;2023-03-12T12:38:31;307.50;1331.20
57030;DHT22;42920;45.306;20.448;2023-03-12T12:41:00;282.50;1331.20
57030;DHT22;42920;45.306;20.448;2023-03-12T12:43:31;282.00;1382.40
57030;DHT22;42920;45.306;20.448;2023-03-12T12:46:04;282.20;1408.00
57030;DHT22;42920;45.306;20.448;2023-03-12T12:51:05;307.50;1356.80
57030;DHT22;42920;45.306;20.448;2023-03-12T12:58:55;308.10;1331.20
57030;DHT22;42920;45.306;20.448;2023-03-12T13:01:22;307.70;1356.80
57030;DHT22;42920;45.306;20.448;2023-03-12T13:03:47;307.20;1356.80
57030;DHT22;42920;45.306;20.448;2023-03-12T13:06:13;282.30;1356.80
57030;DHT22;42920;45.306;20.448;2023-03-12T13:11:23;281.90;1382.40
57030;DHT22;42920;45.306;20.448;2023-03-12T13:16:36;256.90;1433.60
57030;DHT22;42920;45.306;20.448;2023-03-12T13:21:38;256.70;1484.80
57030;DHT22;42920;45.306;20.448;2023-03-12T13:24:08;256.70;1484.80
57030;DHT22;42920;45.306;20.448;2023-03-12T13:26:47;256.50;1484.80
57030;DHT22;42920;45.306;20.448;2023-03-12T13:29:19;256.60;1459.20
57030;DHT22;42920;45.306;20.448;2023-03-12T13:31:45;281.60;1459.20
57030;DHT22;42920;45.306;20.448;2023-03-12T13:36:39;282.50;1408.00
57030;DHT22;42920;45.306;20.448;2023-03-12T13:44:44;307.60;1408.00
57030;DHT22;42920;45.306;20.448;2023-03-12T13:54:32;307.70;1408.00
57030;DHT22;42920;45.306;20.448;2023-03-12T13:56:59;307.60;1408.00
57030;DHT22;42920;45.306;20.448;2023-03-12T13:59:26;307.60;1408.00
57030;DHT22;42920;45.306;20.448;2023-03-12T14:01:53;307.40;1382.40
57030;DHT22;42920;45.306;20.448;2023-03-12T14:04:20;307.40;1408.00
57030;DHT22;42920;45.306;20.448;2023-03-12T14:17:22;307.50;1356.80
57030;DHT22;42920;45.306;20.448;2023-03-12T14:20:22;307.40;1356.80
57030;DHT22;42920;45.306;20.448;2023-03-12T14:22:41;307.30;1382.40
57030;DHT22;42920;45.306;20.448;2023-03-12T14:25:12;307.40;1382.40
57030;DHT22;42920;45.306;20.448;2023-03-12T14:27:38;307.40;1356.80
57030;DHT22;42920;45.306;20.448;2023-03-12T14:32:36;282.40;1382.40
57030;DHT22;42920;45.306;20.448;2023-03-12T14:38:10;282.40;1408.00
57030;DHT22;42920;45.306;20.448;2023-03-12T14:42:58;282.40;1408.00
57030;DHT22;42920;45.306;20.448;2023-03-12T14:45:24;282.20;1433.60
57030;DHT22;42920;45.306;20.448;2023-03-12T14:47:55;282.30;1408.00
57030;DHT22;42920;45.306;20.448;2023-03-12T14:50:28;282.10;1433.60
57030;DHT22;42920;45.306;20.448;2023-03-12T14:53:09;282.00;1459.20
57030;DHT22;42920;45.306;20.448;2023-03-12T14:55:35;281.90;1433.60
57030;DHT22;42920;45.306;20.448;2023-03-12T14:58:04;281.80;1459.20
57030;DHT22;42920;45.306;20.448;2023-03-12T15:00:30;281.80;1459.20
57030;DHT22;42920;45.306;20.448;2023-03-12T15:02:56;281.70;1459.20
57030;DHT22;42920;45.306;20.448;2023-03-12T15:05:23;281.70;1484.80
57030;DHT22;42920;45.306;20.448;2023-03-12T15:07:49;281.70;1459.20
57030;DHT22;42920;45.306;20.448;2023-03-12T15:10:26;281.60;1484.80
57030;DHT22;42920;45.306;20.448;2023-03-12T15:12:53;281.70;1459.20
57030;DHT22;42920;45.306;20.448;2023-03-12T15:15:30;281.60;1459.20
57030;DHT22;42920;45.306;20.448;2023-03-12T15:18:01;281.60;1459.20
57030;DHT22;42920;45.306;20.448;2023-03-12T15:20:27;256.70;1433.60
57030;DHT22;42920;45.306;20.448;2023-03-12T15:22:54;256.80;1433.60
57030;DHT22;42920;45.306;20.448;2023-03-12T15:27:45;256.80;1433.60
57030;DHT22;42920;45.306;20.448;2023-03-12T15:30:23;256.60;1433.60
57030;DHT22;42920;45.306;20.448;2023-03-12T15:35:38;256.30;1459.20
57030;DHT22;42920;45.306;20.448;2023-03-12T15:38:04;256.20;1459.20
57030;DHT22;42920;45.306;20.448;2023-03-12T15:40:30;256.30;1484.80
57030;DHT22;42920;45.306;20.448;2023-03-12T15:42:56;256.20;1484.80
57030;DHT22;42920;45.306;20.448;2023-03-12T15:45:36;256.20;1510.40
57030;DHT22;42920;45.306;20.448;2023-03-12T15:48:03;256.20;1484.80
57030;DHT22;42920;45.306;20.448;2023-03-12T15:50:30;256.20;1459.20
57030;DHT22;42920;45.306;20.448;2023-03-12T15:52:58;256.20;1484.80
57030;DHT22;42920;45.306;20.448;2023-03-12T15:55:26;256.10;1484.80
57030;DHT22;42920;45.306;20.448;2023-03-12T15:57:54;256.00;1510.40
57030;DHT22;42920;45.306;20.448;2023-03-12T16:00:21;256.00;1510.40
57030;DHT22;42920;45.306;20.448;2023-03-12T16:02:49;231.30;1536.00
57030;DHT22;42920;45.306;20.448;2023-03-12T16:05:15;231.20;1536.00
57030;DHT22;42920;45.306;20.448;2023-03-12T16:07:40;231.20;1536.00
57030;DHT22;42920;45.306;20.448;2023-03-12T16:10:08;231.10;1536.00
57030;DHT22;42920;45.306;20.448;2023-03-12T16:12:35;231.10;1536.00
57030;DHT22;42920;45.306;20.448;2023-03-12T16:15:02;231.20;1536.00
57030;DHT22;42920;45.306;20.448;2023-03-12T16:17:28;231.10;1561.60
57030;DHT22;42920;45.306;20.448;2023-03-12T16:19:53;231.10;1561.60
57030;DHT22;42920;45.306;20.448;2023-03-12T16:22:19;231.10;1561.60
57030;DHT22;42920;45.306;20.448;2023-03-12T16:24:46;231.20;1561.60
57030;DHT22;42920;45.306;20.448;2023-03-12T16:27:13;231.10;1561.60
57030;DHT22;42920;45.306;20.448;2023-03-12T16:29:39;231.10;1561.60